Arctic - Eastern Arctic: Past 24 Hour Conditions

 

Iqaluit Airport

04:00 PM EDT 24 April 2014
This table is a summary of hourly weather conditions for the past 24 hours.
Date / Time
(EDT)
Wind(knots) Conditions Visibility(km) Pressure(kPa) Air tempC) Relative humidity(%) Dew pointC) Wind Chill
24 April 2014
16:00 WNW 4 Mainly Sunny 48 102.9 -11 64 -17 -15
15:00 NW 7 Light Snow 32 103.0 -12 64 -17 -18
14:00 WNW 5 Light Snow 16 103.0 -11 64 -17 -16
13:00 NNW 5 Light Snow 16 103.0 -11 66 -17 -17
12:00 NW 4 Cloudy 32 103.0 -12 66 -17 -16
11:00 NW 4 Light Snow 10 103.0 -12 67 -17 -16
10:00 SW 2 Light Snow 5 103.0 -13 75 -16 -15
9:00 SSE 3 Cloudy 32 103.0 -15 76 -18 -18
8:00 calm Cloudy 48 103.0 -15 76 -19 *
7:00 calm Cloudy 32 102.9 -18 77 -21 *
6:00 NW 5 Cloudy 48 102.9 -18 75 -21 -24
5:00 NW 5 Mostly Cloudy 48 102.9 -19 74 -22 -26
4:00 N 3 Mainly Clear 40 102.9 -17 70 -21 -21
3:00 NNE 3 Clear 24 102.8 -16 72 -20 -20
2:00 N 1 Clear 24 102.8 -19 79 -22 -21
1:00 N 2 Clear 24 102.8 -19 78 -22 -23
0:00 N 4 Clear 24 102.8 -18 77 -21 -24
23 April 2014
23:00 N 5 Clear 24 102.7 -19 74 -22 -25
22:00 N 4 Clear 24 102.7 -17 77 -20 -23
21:00 N 6 Clear 32 102.7 -16 76 -20 -23
20:00 N 4 Sunny 48 102.7 -14 73 -18 -19
19:00 calm Sunny 48 102.7 -11 72 -15 *
18:00 WSW 2 Sunny 48 102.6 -11 69 -15 -12
17:00 WSW 3 Sunny 48 102.6 -10 69 -14 -13
16:00 N 1 Sunny 48 102.6 -9 62 -15 -10
 
Map of Arctic - Eastern Arctic marine weather areas Baker Lake Airport Chesterfield Inlet Airport Coral Harbour Airport Gjoa Haven Airport Kugaaruk Airport Rankin Inlet Airport Shepherd Bay Airport Whale Cove Airport Arctic Bay Brevoort Island Qikiqtarjuaq Airport Cape Dorset Airport Cape Dyer Cape Hooper Clyde Airport Grise Fiord Airport Hall Beach Airport Igloolik Airport Iqaluit Airport Longstaff Bluff Pangnirtung Airport Pond Inlet Airport Repulse Bay Airport Resolute Airport Resolution Island Rowley Island Airport Taloyoak Airport Wager Bay Akulivik Airport Ivujivik Airport Puvirnituq Airport Kangiqsujuaq Airport Kangirsuk Airport Quaqtaq Airport Tasiujaq Airport Cape Kakkiviak Cape Kiglapait Nain Airport Saglek Cape Mercy Kimmirut Airport Aupaluk Airport Salluit Airport Kangiqsualujjuaq Airport Fort Ross
Legend: buoyBuoy land stationLand Station